sensor_id;sensor_type;location;lat;lon;timestamp;temperature;humidity
13123;DHT22;6627;50.920;12.050;2023-04-30T00:00:08;7.20;99.90
13123;DHT22;6627;50.920;12.050;2023-04-30T00:02:37;7.10;99.90
13123;DHT22;6627;50.920;12.050;2023-04-30T00:05:04;7.20;99.90
13123;DHT22;6627;50.920;12.050;2023-04-30T00:07:32;7.20;99.90
13123;DHT22;6627;50.920;12.050;2023-04-30T00:10:00;7.10;99.90
13123;DHT22;6627;50.920;12.050;2023-04-30T00:12:27;7.00;99.90
13123;DHT22;6627;50.920;12.050;2023-04-30T00:14:54;7.00;99.90
13123;DHT22;6627;50.920;12.050;2023-04-30T00:17:23;7.00;99.90
13123;DHT22;6627;50.920;12.050;2023-04-30T00:19:51;7.00;99.90
13123;DHT22;6627;50.920;12.050;2023-04-30T00:22:18;7.10;99.90
13123;DHT22;6627;50.920;12.050;2023-04-30T00:24:46;7.20;99.90
13123;DHT22;6627;50.920;12.050;2023-04-30T00:27:13;7.30;99.90
13123;DHT22;6627;50.920;12.050;2023-04-30T00:29:40;7.40;99.90
13123;DHT22;6627;50.920;12.050;2023-04-30T00:32:07;7.60;99.90
13123;DHT22;6627;50.920;12.050;2023-04-30T00:34:36;7.70;99.90
13123;DHT22;6627;50.920;12.050;2023-04-30T00:37:03;7.90;99.90
13123;DHT22;6627;50.920;12.050;2023-04-30T00:39:31;7.90;99.90
13123;DHT22;6627;50.920;12.050;2023-04-30T00:42:10;7.90;99.90
13123;DHT22;6627;50.920;12.050;2023-04-30T00:44:37;7.90;99.90
13123;DHT22;6627;50.920;12.050;2023-04-30T00:47:04;7.90;99.90
13123;DHT22;6627;50.920;12.050;2023-04-30T00:49:32;8.00;99.90
13123;DHT22;6627;50.920;12.050;2023-04-30T00:52:01;8.00;99.90
13123;DHT22;6627;50.920;12.050;2023-04-30T00:54:28;8.00;99.90
13123;DHT22;6627;50.920;12.050;2023-04-30T00:56:57;8.00;99.90
13123;DHT22;6627;50.920;12.050;2023-04-30T00:59:25;8.10;99.90
13123;DHT22;6627;50.920;12.050;2023-04-30T01:01:54;8.10;99.90
13123;DHT22;6627;50.920;12.050;2023-04-30T01:04:22;8.00;99.90
13123;DHT22;6627;50.920;12.050;2023-04-30T01:06:50;8.00;99.90
13123;DHT22;6627;50.920;12.050;2023-04-30T01:09:18;8.10;99.90
13123;DHT22;6627;50.920;12.050;2023-04-30T01:11:55;8.00;99.90
13123;DHT22;6627;50.920;12.050;2023-04-30T01:14:39;8.00;99.90
13123;DHT22;6627;50.920;12.050;2023-04-30T01:17:25;7.90;99.90
13123;DHT22;6627;50.920;12.050;2023-04-30T01:19:58;7.90;99.90
13123;DHT22;6627;50.920;12.050;2023-04-30T01:22:34;7.90;99.90
13123;DHT22;6627;50.920;12.050;2023-04-30T01:25:34;7.80;99.90
13123;DHT22;6627;50.920;12.050;2023-04-30T01:28:18;7.80;99.90
13123;DHT22;6627;50.920;12.050;2023-04-30T01:30:46;7.80;99.90
13123;DHT22;6627;50.920;12.050;2023-04-30T01:33:13;7.70;99.90
13123;DHT22;6627;50.920;12.050;2023-04-30T01:35:57;7.70;99.90
13123;DHT22;6627;50.920;12.050;2023-04-30T01:38:54;7.70;99.90
13123;DHT22;6627;50.920;12.050;2023-04-30T01:41:32;7.60;99.90
13123;DHT22;6627;50.920;12.050;2023-04-30T01:44:22;7.60;99.90
13123;DHT22;6627;50.920;12.050;2023-04-30T01:49:40;7.40;99.90
13123;DHT22;6627;50.920;12.050;2023-04-30T01:52:20;7.20;99.90
13123;DHT22;6627;50.920;12.050;2023-04-30T01:57:28;7.10;99.90
13123;DHT22;6627;50.920;12.050;2023-04-30T02:00:02;7.10;99.90
13123;DHT22;6627;50.920;12.050;2023-04-30T02:02:30;6.90;99.90
13123;DHT22;6627;50.920;12.050;2023-04-30T02:04:57;6.90;99.90
13123;DHT22;6627;50.920;12.050;2023-04-30T02:07:36;6.90;99.90
13123;DHT22;6627;50.920;12.050;2023-04-30T02:10:07;6.70;99.90
13123;DHT22;6627;50.920;12.050;2023-04-30T02:12:34;6.60;99.90
13123;DHT22;6627;50.920;12.050;2023-04-30T02:15:04;6.60;99.90
13123;DHT22;6627;50.920;12.050;2023-04-30T02:17:33;6.40;99.90
13123;DHT22;6627;50.920;12.050;2023-04-30T02:20:00;6.10;99.90
13123;DHT22;6627;50.920;12.050;2023-04-30T02:22:28;6.10;99.90
13123;DHT22;6627;50.920;12.050;2023-04-30T02:24:55;5.90;99.90
13123;DHT22;6627;50.920;12.050;2023-04-30T02:27:23;5.80;99.90
13123;DHT22;6627;50.920;12.050;2023-04-30T02:29:52;5.80;99.90
13123;DHT22;6627;50.920;12.050;2023-04-30T02:32:20;5.70;99.90
13123;DHT22;6627;50.920;12.050;2023-04-30T02:34:47;5.70;99.90
13123;DHT22;6627;50.920;12.050;2023-04-30T02:37:15;5.70;99.90
13123;DHT22;6627;50.920;12.050;2023-04-30T02:39:42;5.70;99.90
13123;DHT22;6627;50.920;12.050;2023-04-30T02:42:09;5.70;99.90
13123;DHT22;6627;50.920;12.050;2023-04-30T02:44:48;5.70;99.90
13123;DHT22;6627;50.920;12.050;2023-04-30T02:47:15;5.60;99.90
13123;DHT22;6627;50.920;12.050;2023-04-30T02:49:44;5.60;99.90
13123;DHT22;6627;50.920;12.050;2023-04-30T02:52:22;5.50;99.90
13123;DHT22;6627;50.920;12.050;2023-04-30T02:54:49;5.50;99.90
13123;DHT22;6627;50.920;12.050;2023-04-30T02:57:16;5.50;99.90
13123;DHT22;6627;50.920;12.050;2023-04-30T02:59:43;5.40;99.90
13123;DHT22;6627;50.920;12.050;2023-04-30T03:02:11;5.40;99.90
13123;DHT22;6627;50.920;12.050;2023-04-30T03:04:38;5.40;99.90
13123;DHT22;6627;50.920;12.050;2023-04-30T03:07:06;5.50;99.90
13123;DHT22;6627;50.920;12.050;2023-04-30T03:09:35;5.50;99.90
13123;DHT22;6627;50.920;12.050;2023-04-30T03:12:02;5.30;99.90
13123;DHT22;6627;50.920;12.050;2023-04-30T03:14:29;5.10;99.90
13123;DHT22;6627;50.920;12.050;2023-04-30T03:16:56;5.00;99.90
13123;DHT22;6627;50.920;12.050;2023-04-30T03:19:23;4.90;99.90
13123;DHT22;6627;50.920;12.050;2023-04-30T03:21:51;4.80;99.90
13123;DHT22;6627;50.920;12.050;2023-04-30T03:24:20;4.70;99.90
13123;DHT22;6627;50.920;12.050;2023-04-30T03:26:47;4.70;99.90
13123;DHT22;6627;50.920;12.050;2023-04-30T03:29:15;4.60;99.90
13123;DHT22;6627;50.920;12.050;2023-04-30T03:31:42;4.70;99.90
13123;DHT22;6627;50.920;12.050;2023-04-30T03:34:09;4.60;99.90
13123;DHT22;6627;50.920;12.050;2023-04-30T03:36:37;4.60;99.90
13123;DHT22;6627;50.920;12.050;2023-04-30T03:39:05;4.50;99.90
13123;DHT22;6627;50.920;12.050;2023-04-30T03:41:35;4.50;99.90
13123;DHT22;6627;50.920;12.050;2023-04-30T03:44:03;4.40;99.90
13123;DHT22;6627;50.920;12.050;2023-04-30T03:46:30;4.40;99.90
13123;DHT22;6627;50.920;12.050;2023-04-30T03:48:57;4.40;99.90
13123;DHT22;6627;50.920;12.050;2023-04-30T03:51:24;4.40;99.90
13123;DHT22;6627;50.920;12.050;2023-04-30T03:53:53;4.30;99.90
13123;DHT22;6627;50.920;12.050;2023-04-30T03:56:20;4.30;99.90
13123;DHT22;6627;50.920;12.050;2023-04-30T03:58:50;4.40;99.90
13123;DHT22;6627;50.920;12.050;2023-04-30T04:01:17;4.60;99.90
13123;DHT22;6627;50.920;12.050;2023-04-30T04:03:44;4.40;99.90
13123;DHT22;6627;50.920;12.050;2023-04-30T04:06:11;4.30;99.90
13123;DHT22;6627;50.920;12.050;2023-04-30T04:08:39;4.30;99.90
13123;DHT22;6627;50.920;12.050;2023-04-30T04:11:08;4.20;99.90
13123;DHT22;6627;50.920;12.050;2023-04-30T04:13:35;4.20;99.90
13123;DHT22;6627;50.920;12.050;2023-04-30T04:16:04;4.20;99.90
13123;DHT22;6627;50.920;12.050;2023-04-30T04:18:33;4.10;99.90
13123;DHT22;6627;50.920;12.050;2023-04-30T04:21:01;4.10;99.90
13123;DHT22;6627;50.920;12.050;2023-04-30T04:23:29;4.00;99.90
13123;DHT22;6627;50.920;12.050;2023-04-30T04:28:25;4.20;99.90
13123;DHT22;6627;50.920;12.050;2023-04-30T04:30:52;4.40;99.90
13123;DHT22;6627;50.920;12.050;2023-04-30T04:33:20;4.50;99.90
13123;DHT22;6627;50.920;12.050;2023-04-30T04:35:47;4.70;99.90
13123;DHT22;6627;50.920;12.050;2023-04-30T04:38:14;4.80;99.90
13123;DHT22;6627;50.920;12.050;2023-04-30T04:40:50;4.90;99.90
13123;DHT22;6627;50.920;12.050;2023-04-30T04:43:18;5.00;99.90
13123;DHT22;6627;50.920;12.050;2023-04-30T04:45:45;5.20;99.90
13123;DHT22;6627;50.920;12.050;2023-04-30T04:48:14;5.20;99.90
13123;DHT22;6627;50.920;12.050;2023-04-30T04:50:42;5.30;99.90
13123;DHT22;6627;50.920;12.050;2023-04-30T04:53:09;5.40;99.90
13123;DHT22;6627;50.920;12.050;2023-04-30T04:55:36;5.40;99.90
13123;DHT22;6627;50.920;12.050;2023-04-30T04:58:04;5.40;99.90
13123;DHT22;6627;50.920;12.050;2023-04-30T05:00:31;5.30;99.90
13123;DHT22;6627;50.920;12.050;2023-04-30T05:05:27;5.20;99.90
13123;DHT22;6627;50.920;12.050;2023-04-30T05:07:55;5.30;99.90
13123;DHT22;6627;50.920;12.050;2023-04-30T05:10:22;5.40;99.90
13123;DHT22;6627;50.920;12.050;2023-04-30T05:12:49;5.40;99.90
13123;DHT22;6627;50.920;12.050;2023-04-30T05:15:17;5.60;99.90
13123;DHT22;6627;50.920;12.050;2023-04-30T05:17:44;5.60;99.90
13123;DHT22;6627;50.920;12.050;2023-04-30T05:20:11;5.70;99.90
13123;DHT22;6627;50.920;12.050;2023-04-30T05:22:39;5.80;99.90
13123;DHT22;6627;50.920;12.050;2023-04-30T05:25:08;5.80;99.90
13123;DHT22;6627;50.920;12.050;2023-04-30T05:27:36;5.90;99.90
13123;DHT22;6627;50.920;12.050;2023-04-30T05:30:05;6.00;99.90
13123;DHT22;6627;50.920;12.050;2023-04-30T05:32:34;5.80;99.90
13123;DHT22;6627;50.920;12.050;2023-04-30T05:35:01;5.80;99.90
13123;DHT22;6627;50.920;12.050;2023-04-30T05:37:28;6.00;99.90
13123;DHT22;6627;50.920;12.050;2023-04-30T05:39:55;6.10;99.90
13123;DHT22;6627;50.920;12.050;2023-04-30T05:42:24;6.20;99.90
13123;DHT22;6627;50.920;12.050;2023-04-30T05:44:51;6.30;99.90
13123;DHT22;6627;50.920;12.050;2023-04-30T05:47:18;6.40;99.90
13123;DHT22;6627;50.920;12.050;2023-04-30T05:49:46;6.50;99.90
13123;DHT22;6627;50.920;12.050;2023-04-30T05:52:13;6.60;99.90
13123;DHT22;6627;50.920;12.050;2023-04-30T05:54:42;6.70;99.90
13123;DHT22;6627;50.920;12.050;2023-04-30T05:57:09;6.70;99.90
13123;DHT22;6627;50.920;12.050;2023-04-30T05:59:38;6.90;99.90
13123;DHT22;6627;50.920;12.050;2023-04-30T06:02:05;7.00;99.90
13123;DHT22;6627;50.920;12.050;2023-04-30T06:04:32;7.10;99.90
13123;DHT22;6627;50.920;12.050;2023-04-30T06:07:00;7.20;99.90
13123;DHT22;6627;50.920;12.050;2023-04-30T06:09:28;7.20;99.90
13123;DHT22;6627;50.920;12.050;2023-04-30T06:11:55;7.30;99.90
13123;DHT22;6627;50.920;12.050;2023-04-30T06:14:22;7.20;99.90
13123;DHT22;6627;50.920;12.050;2023-04-30T06:16:51;7.20;99.90
13123;DHT22;6627;50.920;12.050;2023-04-30T06:19:18;7.10;99.90
13123;DHT22;6627;50.920;12.050;2023-04-30T06:21:45;7.10;99.90
13123;DHT22;6627;50.920;12.050;2023-04-30T06:24:13;7.10;99.90
13123;DHT22;6627;50.920;12.050;2023-04-30T06:26:40;7.20;99.90
13123;DHT22;6627;50.920;12.050;2023-04-30T06:29:07;7.30;99.90
13123;DHT22;6627;50.920;12.050;2023-04-30T06:31:35;7.40;99.90
13123;DHT22;6627;50.920;12.050;2023-04-30T06:34:03;7.50;99.90
13123;DHT22;6627;50.920;12.050;2023-04-30T06:36:30;7.70;99.90
13123;DHT22;6627;50.920;12.050;2023-04-30T06:38:57;7.70;99.90
13123;DHT22;6627;50.920;12.050;2023-04-30T06:41:26;7.80;99.90
13123;DHT22;6627;50.920;12.050;2023-04-30T06:43:53;7.90;99.90
13123;DHT22;6627;50.920;12.050;2023-04-30T06:46:21;8.00;99.90
13123;DHT22;6627;50.920;12.050;2023-04-30T06:48:48;8.10;99.90
13123;DHT22;6627;50.920;12.050;2023-04-30T06:51:17;8.20;99.90
13123;DHT22;6627;50.920;12.050;2023-04-30T06:53:44;8.20;99.90
13123;DHT22;6627;50.920;12.050;2023-04-30T06:56:11;8.10;99.90
13123;DHT22;6627;50.920;12.050;2023-04-30T06:58:39;8.10;99.90
13123;DHT22;6627;50.920;12.050;2023-04-30T07:01:06;7.90;99.90
13123;DHT22;6627;50.920;12.050;2023-04-30T07:03:33;7.80;99.90
13123;DHT22;6627;50.920;12.050;2023-04-30T07:06:01;7.90;99.90
13123;DHT22;6627;50.920;12.050;2023-04-30T07:08:30;7.80;99.90
13123;DHT22;6627;50.920;12.050;2023-04-30T07:10:57;7.80;99.90
13123;DHT22;6627;50.920;12.050;2023-04-30T07:13:25;7.80;99.90
13123;DHT22;6627;50.920;12.050;2023-04-30T07:15:53;7.90;99.90
13123;DHT22;6627;50.920;12.050;2023-04-30T07:18:20;8.00;99.90
13123;DHT22;6627;50.920;12.050;2023-04-30T07:20:48;8.00;99.90
13123;DHT22;6627;50.920;12.050;2023-04-30T07:23:15;8.00;99.90
13123;DHT22;6627;50.920;12.050;2023-04-30T07:25:44;8.10;99.90
13123;DHT22;6627;50.920;12.050;2023-04-30T07:28:11;8.20;99.90
13123;DHT22;6627;50.920;12.050;2023-04-30T07:30:38;8.20;99.90
13123;DHT22;6627;50.920;12.050;2023-04-30T07:33:06;8.20;99.90
13123;DHT22;6627;50.920;12.050;2023-04-30T07:35:35;8.30;99.90
13123;DHT22;6627;50.920;12.050;2023-04-30T07:38:02;8.30;99.90
13123;DHT22;6627;50.920;12.050;2023-04-30T07:40:30;8.40;99.90
13123;DHT22;6627;50.920;12.050;2023-04-30T07:42:59;8.60;99.90
13123;DHT22;6627;50.920;12.050;2023-04-30T07:45:45;8.40;99.90
13123;DHT22;6627;50.920;12.050;2023-04-30T07:48:14;8.40;99.90
13123;DHT22;6627;50.920;12.050;2023-04-30T07:50:41;8.40;99.90
13123;DHT22;6627;50.920;12.050;2023-04-30T07:53:10;8.50;99.90
13123;DHT22;6627;50.920;12.050;2023-04-30T07:55:37;8.50;99.90
13123;DHT22;6627;50.920;12.050;2023-04-30T07:58:06;8.40;99.90
13123;DHT22;6627;50.920;12.050;2023-04-30T08:00:33;8.50;99.90
13123;DHT22;6627;50.920;12.050;2023-04-30T08:03:00;8.60;99.90
13123;DHT22;6627;50.920;12.050;2023-04-30T08:05:28;8.60;99.90
13123;DHT22;6627;50.920;12.050;2023-04-30T08:07:55;8.60;99.90
13123;DHT22;6627;50.920;12.050;2023-04-30T08:10:22;8.60;99.90
13123;DHT22;6627;50.920;12.050;2023-04-30T08:12:50;8.90;99.90
13123;DHT22;6627;50.920;12.050;2023-04-30T08:15:19;8.90;99.90
13123;DHT22;6627;50.920;12.050;2023-04-30T08:17:48;8.90;99.90
13123;DHT22;6627;50.920;12.050;2023-04-30T08:20:16;8.90;99.90
13123;DHT22;6627;50.920;12.050;2023-04-30T08:22:44;8.90;99.90
13123;DHT22;6627;50.920;12.050;2023-04-30T08:25:11;9.00;99.90
13123;DHT22;6627;50.920;12.050;2023-04-30T08:27:38;9.00;99.90
13123;DHT22;6627;50.920;12.050;2023-04-30T08:30:06;8.90;99.90
13123;DHT22;6627;50.920;12.050;2023-04-30T08:32:36;9.00;99.90
13123;DHT22;6627;50.920;12.050;2023-04-30T08:35:04;8.90;99.90
13123;DHT22;6627;50.920;12.050;2023-04-30T08:37:32;8.70;99.90
13123;DHT22;6627;50.920;12.050;2023-04-30T08:40:00;8.80;99.90
13123;DHT22;6627;50.920;12.050;2023-04-30T08:42:30;9.00;99.90
13123;DHT22;6627;50.920;12.050;2023-04-30T08:45:02;9.00;99.90
13123;DHT22;6627;50.920;12.050;2023-04-30T08:47:31;9.00;99.90
13123;DHT22;6627;50.920;12.050;2023-04-30T08:50:00;8.90;99.90
13123;DHT22;6627;50.920;12.050;2023-04-30T08:52:27;9.40;99.90
13123;DHT22;6627;50.920;12.050;2023-04-30T08:54:57;9.80;99.90
13123;DHT22;6627;50.920;12.050;2023-04-30T08:57:27;10.80;99.90
13123;DHT22;6627;50.920;12.050;2023-04-30T08:59:56;11.00;99.90
13123;DHT22;6627;50.920;12.050;2023-04-30T09:02:23;11.00;99.90
13123;DHT22;6627;50.920;12.050;2023-04-30T09:05:13;11.10;99.90
13123;DHT22;6627;50.920;12.050;2023-04-30T09:07:42;11.00;99.90
13123;DHT22;6627;50.920;12.050;2023-04-30T09:10:14;11.30;99.90
13123;DHT22;6627;50.920;12.050;2023-04-30T09:12:42;11.30;99.90
13123;DHT22;6627;50.920;12.050;2023-04-30T09:15:11;11.40;99.90
13123;DHT22;6627;50.920;12.050;2023-04-30T09:17:38;11.60;99.90
13123;DHT22;6627;50.920;12.050;2023-04-30T09:20:07;11.60;99.90
13123;DHT22;6627;50.920;12.050;2023-04-30T09:22:38;11.50;99.90
13123;DHT22;6627;50.920;12.050;2023-04-30T09:25:07;11.70;99.90
13123;DHT22;6627;50.920;12.050;2023-04-30T09:27:36;11.90;1.00
13123;DHT22;6627;50.920;12.050;2023-04-30T09:30:05;11.80;22.20
13123;DHT22;6627;50.920;12.050;2023-04-30T09:32:33;11.80;1.00
13123;DHT22;6627;50.920;12.050;2023-04-30T09:35:00;12.00;1.00
13123;DHT22;6627;50.920;12.050;2023-04-30T09:37:37;12.10;1.00
13123;DHT22;6627;50.920;12.050;2023-04-30T09:40:05;12.20;99.90
13123;DHT22;6627;50.920;12.050;2023-04-30T09:42:33;12.20;1.00
13123;DHT22;6627;50.920;12.050;2023-04-30T09:45:04;12.40;99.90
13123;DHT22;6627;50.920;12.050;2023-04-30T09:47:32;12.10;1.00
13123;DHT22;6627;50.920;12.050;2023-04-30T09:50:00;12.00;99.90
13123;DHT22;6627;50.920;12.050;2023-04-30T09:52:28;12.00;1.00
13123;DHT22;6627;50.920;12.050;2023-04-30T09:54:58;12.00;1.00
13123;DHT22;6627;50.920;12.050;2023-04-30T09:57:26;12.50;1.00
13123;DHT22;6627;50.920;12.050;2023-04-30T09:59:57;12.10;1.00
13123;DHT22;6627;50.920;12.050;2023-04-30T10:02:27;11.70;99.90
13123;DHT22;6627;50.920;12.050;2023-04-30T10:04:57;12.00;1.00
13123;DHT22;6627;50.920;12.050;2023-04-30T10:07:31;12.40;99.90
13123;DHT22;6627;50.920;12.050;2023-04-30T10:10:07;12.40;60.30
13123;DHT22;6627;50.920;12.050;2023-04-30T10:12:38;12.10;1.00
13123;DHT22;6627;50.920;12.050;2023-04-30T10:15:14;12.30;1.00
13123;DHT22;6627;50.920;12.050;2023-04-30T10:17:48;12.10;99.90
13123;DHT22;6627;50.920;12.050;2023-04-30T10:20:21;12.40;99.90
13123;DHT22;6627;50.920;12.050;2023-04-30T10:22:54;12.70;99.90
13123;DHT22;6627;50.920;12.050;2023-04-30T10:25:23;12.50;1.00
13123;DHT22;6627;50.920;12.050;2023-04-30T10:27:51;12.70;1.00
13123;DHT22;6627;50.920;12.050;2023-04-30T10:30:21;13.00;1.00
13123;DHT22;6627;50.920;12.050;2023-04-30T10:33:02;13.10;1.00
13123;DHT22;6627;50.920;12.050;2023-04-30T10:35:45;13.20;99.90
13123;DHT22;6627;50.920;12.050;2023-04-30T10:38:20;13.30;99.90
13123;DHT22;6627;50.920;12.050;2023-04-30T10:40:55;13.10;1.00
13123;DHT22;6627;50.920;12.050;2023-04-30T10:43:26;13.20;1.00
13123;DHT22;6627;50.920;12.050;2023-04-30T10:45:56;13.10;1.00
13123;DHT22;6627;50.920;12.050;2023-04-30T10:48:24;13.10;99.90
13123;DHT22;6627;50.920;12.050;2023-04-30T10:50:54;13.30;99.90
13123;DHT22;6627;50.920;12.050;2023-04-30T10:53:22;13.20;99.90
13123;DHT22;6627;50.920;12.050;2023-04-30T10:55:56;13.50;99.90
13123;DHT22;6627;50.920;12.050;2023-04-30T10:58:25;13.60;89.40
13123;DHT22;6627;50.920;12.050;2023-04-30T11:01:04;13.50;5.50
13123;DHT22;6627;50.920;12.050;2023-04-30T11:03:34;13.30;1.00
13123;DHT22;6627;50.920;12.050;2023-04-30T11:06:07;13.30;1.00
13123;DHT22;6627;50.920;12.050;2023-04-30T11:08:39;13.40;1.00
13123;DHT22;6627;50.920;12.050;2023-04-30T11:11:16;13.70;1.00
13123;DHT22;6627;50.920;12.050;2023-04-30T11:13:47;13.60;99.90
13123;DHT22;6627;50.920;12.050;2023-04-30T11:16:28;14.00;99.90
13123;DHT22;6627;50.920;12.050;2023-04-30T11:19:04;14.00;99.90
13123;DHT22;6627;50.920;12.050;2023-04-30T11:21:32;13.90;34.00
13123;DHT22;6627;50.920;12.050;2023-04-30T11:24:02;13.80;1.00
13123;DHT22;6627;50.920;12.050;2023-04-30T11:29:39;13.70;1.00
13123;DHT22;6627;50.920;12.050;2023-04-30T11:32:09;13.80;1.00
13123;DHT22;6627;50.920;12.050;2023-04-30T11:34:37;13.80;1.00
13123;DHT22;6627;50.920;12.050;2023-04-30T11:37:05;14.20;1.00
13123;DHT22;6627;50.920;12.050;2023-04-30T11:39:34;13.90;99.90
13123;DHT22;6627;50.920;12.050;2023-04-30T11:42:05;14.20;99.90
13123;DHT22;6627;50.920;12.050;2023-04-30T11:44:33;14.30;99.90
13123;DHT22;6627;50.920;12.050;2023-04-30T11:47:00;14.20;99.90
13123;DHT22;6627;50.920;12.050;2023-04-30T11:49:28;14.40;99.90
13123;DHT22;6627;50.920;12.050;2023-04-30T11:51:56;14.50;99.90
13123;DHT22;6627;50.920;12.050;2023-04-30T11:54:25;14.60;99.90
13123;DHT22;6627;50.920;12.050;2023-04-30T11:56:53;14.60;36.40
13123;DHT22;6627;50.920;12.050;2023-04-30T11:59:29;14.40;1.00
13123;DHT22;6627;50.920;12.050;2023-04-30T12:01:57;14.30;1.00
13123;DHT22;6627;50.920;12.050;2023-04-30T12:04:25;14.30;1.00
13123;DHT22;6627;50.920;12.050;2023-04-30T12:06:53;14.50;1.00
13123;DHT22;6627;50.920;12.050;2023-04-30T12:09:20;14.50;1.00
13123;DHT22;6627;50.920;12.050;2023-04-30T12:11:48;14.40;1.00
13123;DHT22;6627;50.920;12.050;2023-04-30T12:14:15;14.10;1.00
13123;DHT22;6627;50.920;12.050;2023-04-30T12:16:45;14.40;1.00
13123;DHT22;6627;50.920;12.050;2023-04-30T12:19:14;14.50;1.00
13123;DHT22;6627;50.920;12.050;2023-04-30T12:21:44;14.20;99.90
13123;DHT22;6627;50.920;12.050;2023-04-30T12:24:13;14.60;1.00
13123;DHT22;6627;50.920;12.050;2023-04-30T12:26:41;14.80;99.90
13123;DHT22;6627;50.920;12.050;2023-04-30T12:29:10;14.80;99.90
13123;DHT22;6627;50.920;12.050;2023-04-30T12:31:40;14.90;99.90
13123;DHT22;6627;50.920;12.050;2023-04-30T12:34:12;14.30;99.90
13123;DHT22;6627;50.920;12.050;2023-04-30T12:36:41;14.30;99.90
13123;DHT22;6627;50.920;12.050;2023-04-30T12:39:10;14.30;99.90
13123;DHT22;6627;50.920;12.050;2023-04-30T12:41:41;14.70;99.90
13123;DHT22;6627;50.920;12.050;2023-04-30T12:44:14;14.80;99.90
13123;DHT22;6627;50.920;12.050;2023-04-30T12:46:43;14.70;99.90
13123;DHT22;6627;50.920;12.050;2023-04-30T12:49:21;14.60;99.90
13123;DHT22;6627;50.920;12.050;2023-04-30T12:51:50;14.80;99.90
13123;DHT22;6627;50.920;12.050;2023-04-30T12:54:24;14.90;99.90
13123;DHT22;6627;50.920;12.050;2023-04-30T12:57:00;15.00;99.90
13123;DHT22;6627;50.920;12.050;2023-04-30T12:59:31;15.10;99.90
13123;DHT22;6627;50.920;12.050;2023-04-30T13:02:07;15.00;93.00
13123;DHT22;6627;50.920;12.050;2023-04-30T13:04:37;15.00;92.60
13123;DHT22;6627;50.920;12.050;2023-04-30T13:07:05;15.00;47.40
13123;DHT22;6627;50.920;12.050;2023-04-30T13:09:33;15.10;26.90
13123;DHT22;6627;50.920;12.050;2023-04-30T13:12:01;15.20;30.90
13123;DHT22;6627;50.920;12.050;2023-04-30T13:14:30;15.20;1.00
13123;DHT22;6627;50.920;12.050;2023-04-30T13:16:58;15.50;41.60
13123;DHT22;6627;50.920;12.050;2023-04-30T13:19:28;15.50;1.00
13123;DHT22;6627;50.920;12.050;2023-04-30T13:21:57;15.10;1.00
13123;DHT22;6627;50.920;12.050;2023-04-30T13:24:25;15.20;1.00
13123;DHT22;6627;50.920;12.050;2023-04-30T13:26:52;15.10;1.00
13123;DHT22;6627;50.920;12.050;2023-04-30T13:29:20;15.10;1.00
13123;DHT22;6627;50.920;12.050;2023-04-30T13:31:48;15.20;1.00
13123;DHT22;6627;50.920;12.050;2023-04-30T13:34:15;15.40;1.00
13123;DHT22;6627;50.920;12.050;2023-04-30T13:36:43;15.60;1.00
13123;DHT22;6627;50.920;12.050;2023-04-30T13:39:13;15.50;1.00
13123;DHT22;6627;50.920;12.050;2023-04-30T13:41:41;15.60;1.00
13123;DHT22;6627;50.920;12.050;2023-04-30T13:44:08;15.60;1.00
13123;DHT22;6627;50.920;12.050;2023-04-30T13:46:36;15.70;1.00
13123;DHT22;6627;50.920;12.050;2023-04-30T13:49:03;15.40;1.00
13123;DHT22;6627;50.920;12.050;2023-04-30T13:51:31;14.90;1.00
13123;DHT22;6627;50.920;12.050;2023-04-30T13:53:58;15.20;1.00
13123;DHT22;6627;50.920;12.050;2023-04-30T13:56:27;15.60;1.00
13123;DHT22;6627;50.920;12.050;2023-04-30T13:58:55;15.60;1.00
13123;DHT22;6627;50.920;12.050;2023-04-30T14:01:24;15.40;1.00
13123;DHT22;6627;50.920;12.050;2023-04-30T14:03:52;15.30;1.00
13123;DHT22;6627;50.920;12.050;2023-04-30T14:06:19;15.40;1.00
13123;DHT22;6627;50.920;12.050;2023-04-30T14:08:47;15.40;1.00
13123;DHT22;6627;50.920;12.050;2023-04-30T14:11:14;15.20;1.00
13123;DHT22;6627;50.920;12.050;2023-04-30T14:13:43;15.20;1.00
13123;DHT22;6627;50.920;12.050;2023-04-30T14:16:11;15.20;1.00
13123;DHT22;6627;50.920;12.050;2023-04-30T14:18:39;15.50;1.00
13123;DHT22;6627;50.920;12.050;2023-04-30T14:21:07;15.50;1.00
13123;DHT22;6627;50.920;12.050;2023-04-30T14:23:35;15.80;1.00
13123;DHT22;6627;50.920;12.050;2023-04-30T14:26:04;16.00;1.00
13123;DHT22;6627;50.920;12.050;2023-04-30T14:28:32;15.50;1.00
13123;DHT22;6627;50.920;12.050;2023-04-30T14:31:01;15.70;1.00
13123;DHT22;6627;50.920;12.050;2023-04-30T14:33:30;15.60;99.90
13123;DHT22;6627;50.920;12.050;2023-04-30T14:35:58;15.20;99.90
13123;DHT22;6627;50.920;12.050;2023-04-30T14:38:26;15.50;99.90
13123;DHT22;6627;50.920;12.050;2023-04-30T14:40:53;15.60;99.90
13123;DHT22;6627;50.920;12.050;2023-04-30T14:43:21;15.70;99.90
13123;DHT22;6627;50.920;12.050;2023-04-30T14:45:49;15.60;99.90
13123;DHT22;6627;50.920;12.050;2023-04-30T14:48:18;15.80;99.90
13123;DHT22;6627;50.920;12.050;2023-04-30T14:50:45;15.50;99.90
13123;DHT22;6627;50.920;12.050;2023-04-30T14:53:15;15.60;99.90
13123;DHT22;6627;50.920;12.050;2023-04-30T14:55:42;15.50;99.90
13123;DHT22;6627;50.920;12.050;2023-04-30T14:58:09;15.70;99.90
13123;DHT22;6627;50.920;12.050;2023-04-30T15:00:37;15.60;99.90
13123;DHT22;6627;50.920;12.050;2023-04-30T15:03:05;15.50;99.90
13123;DHT22;6627;50.920;12.050;2023-04-30T15:05:35;15.40;99.90
13123;DHT22;6627;50.920;12.050;2023-04-30T15:08:03;15.40;99.90
13123;DHT22;6627;50.920;12.050;2023-04-30T15:10:32;15.20;99.90
13123;DHT22;6627;50.920;12.050;2023-04-30T15:12:59;15.10;99.90
13123;DHT22;6627;50.920;12.050;2023-04-30T15:15:27;15.40;99.90
13123;DHT22;6627;50.920;12.050;2023-04-30T15:17:57;15.40;99.90
13123;DHT22;6627;50.920;12.050;2023-04-30T15:20:24;15.70;99.90
13123;DHT22;6627;50.920;12.050;2023-04-30T15:22:53;15.80;99.90
13123;DHT22;6627;50.920;12.050;2023-04-30T15:25:22;15.80;99.90
13123;DHT22;6627;50.920;12.050;2023-04-30T15:27:50;15.80;99.90
13123;DHT22;6627;50.920;12.050;2023-04-30T15:30:18;15.90;99.90
13123;DHT22;6627;50.920;12.050;2023-04-30T15:32:48;15.90;99.90
13123;DHT22;6627;50.920;12.050;2023-04-30T15:35:16;15.90;99.90
13123;DHT22;6627;50.920;12.050;2023-04-30T15:37:44;15.70;99.90
13123;DHT22;6627;50.920;12.050;2023-04-30T15:40:15;15.50;99.90
13123;DHT22;6627;50.920;12.050;2023-04-30T15:42:42;15.40;99.90
13123;DHT22;6627;50.920;12.050;2023-04-30T15:45:09;15.50;99.90
13123;DHT22;6627;50.920;12.050;2023-04-30T15:47:37;15.10;99.90
13123;DHT22;6627;50.920;12.050;2023-04-30T15:50:06;15.30;99.90
13123;DHT22;6627;50.920;12.050;2023-04-30T15:52:34;15.40;99.90
13123;DHT22;6627;50.920;12.050;2023-04-30T15:55:01;15.50;99.90
13123;DHT22;6627;50.920;12.050;2023-04-30T15:57:29;15.50;99.90
13123;DHT22;6627;50.920;12.050;2023-04-30T15:59:56;15.50;99.90
13123;DHT22;6627;50.920;12.050;2023-04-30T16:02:25;15.60;99.90
13123;DHT22;6627;50.920;12.050;2023-04-30T16:04:52;15.40;99.90
13123;DHT22;6627;50.920;12.050;2023-04-30T16:07:19;15.50;99.90